createdAt,value
2023-01-28T13:36:22.652Z,13.40
2023-01-28T13:38:51.852Z,27.67
2023-01-28T13:41:21.155Z,12.05
2023-01-28T13:43:50.254Z,12.20
2023-01-28T13:46:19.702Z,10.58
2023-01-28T13:48:48.772Z,11.73
2023-01-28T13:51:17.812Z,11.57
2023-01-28T13:53:46.938Z,12.75
2023-01-28T13:56:15.827Z,12.93
2023-01-28T13:58:45.132Z,9.95
2023-01-28T14:01:14.258Z,12.15
2023-01-28T14:03:43.217Z,6.07
2023-01-28T14:06:15.306Z,2.80
2023-01-28T14:08:44.499Z,2.70
2023-01-28T14:11:14.107Z,3.42
2023-01-28T14:13:43.079Z,1.83
2023-01-28T14:16:12.435Z,2.17
2023-01-28T14:18:41.707Z,2.92
2023-01-28T14:21:10.892Z,2.25
2023-01-28T14:23:40.341Z,9.63
2023-01-28T14:26:09.601Z,1.70
2023-01-28T14:28:39.224Z,2.10
2023-01-28T14:31:08.310Z,2.37
2023-01-28T14:33:37.614Z,3.55
2023-01-28T14:36:06.800Z,4.87
2023-01-28T14:38:36.127Z,2.17
2023-01-28T14:41:05.398Z,2.75
2023-01-28T14:43:35.026Z,3.37
2023-01-28T14:46:05.081Z,2.50
2023-01-28T14:48:34.553Z,4.87
2023-01-28T14:51:03.952Z,3.73
2023-01-28T14:53:33.238Z,3.13
2023-01-28T14:56:02.441Z,4.50
2023-01-28T14:58:31.636Z,4.78
2023-01-28T15:01:01.044Z,7.65
2023-01-28T15:03:30.500Z,3.27
2023-01-28T15:05:59.746Z,2.70
2023-01-28T15:08:29.050Z,2.55
2023-01-28T15:10:58.456Z,3.02
2023-01-28T15:13:27.654Z,4.30
2023-01-28T15:15:57.359Z,5.10
2023-01-28T15:18:29.379Z,3.33
2023-01-28T15:20:58.612Z,2.98
2023-01-28T15:23:27.935Z,4.95
2023-01-28T15:25:57.211Z,3.67
2023-01-28T15:28:26.422Z,3.67
2023-01-28T15:30:55.749Z,3.35
2023-01-28T15:33:25.024Z,4.60
2023-01-28T15:35:54.542Z,2.95
2023-01-28T15:38:23.954Z,2.50
2023-01-28T15:40:53.340Z,3.75
2023-01-28T15:43:22.548Z,2.30
2023-01-28T15:45:51.835Z,4.33
2023-01-28T15:48:21.244Z,2.87
2023-01-28T15:50:50.752Z,3.63
2023-01-28T15:53:20.141Z,4.63
2023-01-28T15:55:49.341Z,3.30
2023-01-28T15:58:18.549Z,3.30
2023-01-28T16:00:47.910Z,3.70
2023-01-28T16:03:17.387Z,4.37
2023-01-28T16:05:46.968Z,4.20
2023-01-28T16:08:16.264Z,5.33
2023-01-28T16:10:45.561Z,3.83
2023-01-28T16:13:15.063Z,3.25
2023-01-28T16:15:44.465Z,4.20
2023-01-28T16:18:13.867Z,3.83
2023-01-28T16:20:43.482Z,3.35
2023-01-28T16:23:12.788Z,3.03
2023-01-28T16:25:42.187Z,4.22
2023-01-28T16:28:11.575Z,4.00
2023-01-28T16:30:40.940Z,2.67
2023-01-28T16:33:10.401Z,3.43
2023-01-28T16:36:03.532Z,3.30
2023-01-28T16:38:10.234Z,3.92
2023-01-28T16:40:39.617Z,4.50
2023-01-28T16:43:08.715Z,2.90
2023-01-28T16:45:38.048Z,2.70
2023-01-28T16:48:07.424Z,2.67
2023-01-28T16:50:36.844Z,2.67
2023-01-28T16:53:06.358Z,3.30
2023-01-28T16:55:35.892Z,2.90
2023-01-28T16:58:05.553Z,3.00
2023-01-28T17:00:34.963Z,3.95
2023-01-28T17:03:04.357Z,2.43
2023-01-28T17:05:34.086Z,3.35
2023-01-28T17:08:03.471Z,2.60
2023-01-28T17:10:32.870Z,2.50
2023-01-28T17:13:05.362Z,2.50
2023-01-28T17:15:34.961Z,3.10
2023-01-28T17:18:04.244Z,1.80
2023-01-28T17:20:33.491Z,1.85
2023-01-28T17:23:02.860Z,3.02
2023-01-28T17:25:32.287Z,2.63
2023-01-28T17:28:01.674Z,2.08
2023-01-28T17:30:30.980Z,2.10
2023-01-28T17:33:00.265Z,1.90
2023-01-28T17:35:29.561Z,2.77
2023-01-28T17:37:58.755Z,2.62
2023-01-28T17:40:28.071Z,2.20
2023-01-28T17:42:57.467Z,2.47
2023-01-28T17:45:26.765Z,2.40
2023-01-28T17:47:55.959Z,2.02
2023-01-28T17:50:25.368Z,3.20
2023-01-28T17:52:54.668Z,2.70
2023-01-28T17:55:23.956Z,2.42
2023-01-28T17:57:53.668Z,3.22
2023-01-28T18:00:22.979Z,5.12
2023-01-28T18:02:52.388Z,1.90
2023-01-28T18:05:21.721Z,2.57
2023-01-28T18:07:50.974Z,1.98
2023-01-28T18:10:20.177Z,2.35
2023-01-28T18:12:49.605Z,3.87
2023-01-28T18:15:19.020Z,3.03
2023-01-28T18:17:48.457Z,2.10
2023-01-28T18:20:17.907Z,3.40
2023-01-28T18:22:47.207Z,2.60
2023-01-28T18:25:16.740Z,3.05
2023-01-28T18:27:46.206Z,3.20
2023-01-28T18:30:15.628Z,2.50
2023-01-28T18:32:45.018Z,2.12
2023-01-28T18:35:14.876Z,2.57
2023-01-28T18:37:44.430Z,2.80
2023-01-28T18:40:13.532Z,3.62
2023-01-28T18:42:43.133Z,2.52
2023-01-28T18:47:59.251Z,4.33
2023-01-28T18:50:28.329Z,4.42
2023-01-28T18:52:57.755Z,3.87
2023-01-28T18:55:27.020Z,2.47
2023-01-28T18:57:56.139Z,2.77
2023-01-28T19:00:25.549Z,3.08
2023-01-28T19:02:55.146Z,3.00
2023-01-28T19:05:24.250Z,3.00
2023-01-28T19:07:53.547Z,3.00
2023-01-28T19:10:23.059Z,2.98
2023-01-28T19:12:55.417Z,3.72
2023-01-28T19:15:24.860Z,2.77
2023-01-28T19:17:54.219Z,3.43
2023-01-28T19:20:23.439Z,2.58
2023-01-28T19:22:52.700Z,3.65
2023-01-28T19:25:21.933Z,4.10
2023-01-28T19:27:51.106Z,3.67
2023-01-28T19:30:22.988Z,2.67
2023-01-28T19:32:52.072Z,3.02
2023-01-28T19:35:24.035Z,3.00
2023-01-28T19:37:53.255Z,4.08
2023-01-28T19:40:22.549Z,2.30
2023-01-28T19:42:51.955Z,2.97
2023-01-28T19:45:21.033Z,2.77
